Time;durP1;ratioP1;P1;durP2;ratioP2;P2;SDS_P1;SDS_P2;PMS_P1;PMS_P2;Temp;Humidity;BMP_temperature;BMP_pressure;BME280_temperature;BME280_humidity;BME280_pressure;Samples;Min_cycle;Max_cycle;Signal;HPM_P1;HPM_P2
2023/05/25 00:00:02;;;;;;;20.20;13.18;;;15.30;99.90;;;;;;5013137;28;20188;-82
2023/05/25 00:02:28;;;;;;;23.80;13.43;;;15.30;99.90;;;;;;4998127;28;20269;-83
2023/05/25 00:04:54;;;;;;;30.40;13.95;;;15.20;99.90;;;;;;4998480;28;20220;-83
2023/05/25 00:07:19;;;;;;;21.73;12.77;;;15.20;99.90;;;;;;4998010;28;20228;-82
2023/05/25 00:09:45;;;;;;;23.45;13.40;;;15.20;99.90;;;;;;4998394;28;20189;-82
2023/05/25 00:12:11;;;;;;;22.40;13.75;;;15.10;99.90;;;;;;5013189;28;20186;-82
2023/05/25 00:14:36;;;;;;;24.23;13.30;;;15.10;99.90;;;;;;4998083;28;20217;-83
2023/05/25 00:17:02;;;;;;;23.52;13.95;;;15.10;99.90;;;;;;4997342;28;20182;-82
2023/05/25 00:19:31;;;;;;;24.33;14.25;;;15.00;99.90;;;;;;4997748;28;20182;-83
2023/05/25 00:22:01;;;;;;;27.85;14.70;;;15.00;99.90;;;;;;4997753;28;20170;-82
2023/05/25 00:24:29;;;;;;;24.73;13.88;;;14.90;99.90;;;;;;4997352;28;20586;-82
2023/05/25 00:26:56;;;;;;;23.00;13.45;;;14.90;99.90;;;;;;4996476;28;20186;-82
2023/05/25 00:29:22;;;;;;;29.05;14.88;;;14.80;99.90;;;;;;4997146;28;20606;-83
2023/05/25 00:31:49;;;;;;;24.42;13.30;;;14.80;99.90;;;;;;5029167;28;20205;-82
2023/05/25 00:34:15;;;;;;;24.55;14.23;;;14.80;99.90;;;;;;4996156;28;20695;-83
2023/05/25 00:36:47;;;;;;;27.00;13.75;;;14.70;99.90;;;;;;5029457;28;20265;-82
2023/05/25 00:39:14;;;;;;;24.75;14.18;;;14.70;99.90;;;;;;5028032;28;20166;-82
2023/05/25 00:41:43;;;;;;;23.20;13.27;;;14.70;99.90;;;;;;4997690;28;20197;-83
2023/05/25 00:44:09;;;;;;;23.33;13.95;;;14.60;99.90;;;;;;5027965;28;20714;-82
2023/05/25 00:46:38;;;;;;;27.38;14.07;;;14.60;99.90;;;;;;4996795;28;20319;-82
2023/05/25 00:49:04;;;;;;;22.60;12.07;;;14.50;99.90;;;;;;5028081;28;20174;-82
2023/05/25 00:51:35;;;;;;;25.30;13.98;;;14.50;99.90;;;;;;4997540;28;20218;-82
2023/05/25 00:54:01;;;;;;;26.52;13.88;;;14.50;99.90;;;;;;5011999;28;20614;-82
2023/05/25 00:56:30;;;;;;;24.50;14.63;;;14.40;99.90;;;;;;4996814;28;20269;-83
2023/05/25 00:59:02;;;;;;;25.02;14.00;;;14.40;99.90;;;;;;4997377;28;20166;-83
2023/05/25 01:01:32;;;;;;;23.27;13.32;;;14.40;99.90;;;;;;4996367;28;20253;-82
2023/05/25 01:03:59;;;;;;;24.85;13.05;;;14.30;99.90;;;;;;5028157;28;20182;-83
2023/05/25 01:06:29;;;;;;;24.02;13.40;;;14.30;99.90;;;;;;4996723;28;20635;-83
2023/05/25 01:08:59;;;;;;;25.00;13.63;;;14.30;99.90;;;;;;4995511;28;20170;-82
2023/05/25 01:11:32;;;;;;;26.17;13.93;;;14.30;99.90;;;;;;4996750;28;20180;-83
2023/05/25 01:13:58;;;;;;;22.77;13.07;;;14.30;99.90;;;;;;4996733;28;20587;-83
2023/05/25 01:16:24;;;;;;;22.02;12.52;;;14.20;99.90;;;;;;4997027;28;20180;-82
2023/05/25 01:18:51;;;;;;;23.13;13.35;;;14.20;99.90;;;;;;4997236;28;20178;-83
2023/05/25 01:21:40;;;;;;;23.75;12.35;;;14.20;99.90;;;;;;5028203;28;20197;-83
2023/05/25 01:24:52;;;;;;;25.25;13.40;;;14.20;99.90;;;;;;5028677;28;20214;-83
2023/05/25 01:27:43;;;;;;;23.35;13.13;;;14.10;99.90;;;;;;4982871;28;20281;-83
2023/05/25 01:30:12;;;;;;;26.05;13.18;;;14.10;99.90;;;;;;4998062;28;20726;-83
2023/05/25 01:32:40;;;;;;;26.48;13.63;;;14.10;99.90;;;;;;5029127;28;20174;-82
2023/05/25 01:35:07;;;;;;;25.55;13.15;;;14.10;99.90;;;;;;4996894;28;20206;-82
2023/05/25 01:37:36;;;;;;;21.23;11.85;;;14.10;99.90;;;;;;5028039;28;20770;-83
2023/05/25 01:40:04;;;;;;;22.10;12.30;;;14.10;99.90;;;;;;4996423;28;20182;-83
2023/05/25 01:42:30;;;;;;;31.80;12.60;;;14.10;99.90;;;;;;4996310;28;20181;-82
2023/05/25 01:44:57;;;;;;;20.70;11.52;;;14.10;99.90;;;;;;4995176;28;20537;-83
2023/05/25 01:47:31;;;;;;;26.23;14.32;;;14.10;99.90;;;;;;4996325;28;20206;-83
2023/05/25 01:50:10;;;;;;;21.85;12.88;;;14.20;99.90;;;;;;4996143;28;20657;-82
2023/05/25 01:52:44;;;;;;;20.38;13.23;;;14.20;99.90;;;;;;4994911;28;20208;-83
2023/05/25 01:55:16;;;;;;;20.38;11.82;;;14.20;99.90;;;;;;4996490;28;20200;-82
2023/05/25 01:57:47;;;;;;;23.40;13.15;;;14.10;99.90;;;;;;4996176;28;20182;-83
2023/05/25 02:00:14;;;;;;;23.25;13.10;;;14.10;99.90;;;;;;4996066;28;20246;-83
2023/05/25 02:02:41;;;;;;;28.67;12.85;;;14.10;99.90;;;;;;5011037;28;20189;-83
2023/05/25 02:05:08;;;;;;;20.50;12.68;;;14.10;99.90;;;;;;5027334;28;20224;-83
2023/05/25 02:07:35;;;;;;;22.42;11.90;;;14.20;99.90;;;;;;4995844;28;20182;-83
2023/05/25 02:10:01;;;;;;;23.20;13.40;;;14.20;99.90;;;;;;5027314;28;20185;-83
2023/05/25 02:12:26;;;;;;;23.55;12.25;;;14.20;99.90;;;;;;5027533;28;20185;-83
2023/05/25 02:14:52;;;;;;;20.75;11.73;;;14.10;99.90;;;;;;4995883;28;20209;-83
2023/05/25 02:17:18;;;;;;;19.08;11.13;;;14.20;99.90;;;;;;4995281;28;20180;-83
2023/05/25 02:19:45;;;;;;;22.67;11.73;;;14.20;99.90;;;;;;5026917;28;20170;-83
2023/05/25 02:22:11;;;;;;;20.50;11.27;;;14.20;99.90;;;;;;4995223;28;20232;-83
2023/05/25 02:24:36;;;;;;;22.25;11.82;;;14.20;99.90;;;;;;4995352;28;20182;-83
2023/05/25 02:27:04;;;;;;;26.40;12.75;;;14.10;99.90;;;;;;4995416;28;20569;-83
2023/05/25 02:29:29;;;;;;;22.95;12.57;;;14.10;99.90;;;;;;4995051;28;20182;-84
2023/05/25 02:31:55;;;;;;;25.80;12.98;;;14.10;99.90;;;;;;5026728;28;20190;-83
2023/05/25 02:34:20;;;;;;;23.48;12.13;;;14.10;99.90;;;;;;4995286;28;20210;-83
2023/05/25 02:36:46;;;;;;;18.75;11.77;;;14.10;99.90;;;;;;5027485;28;20182;-84
2023/05/25 02:39:12;;;;;;;22.05;11.65;;;14.00;99.90;;;;;;5027746;28;20297;-84
2023/05/25 02:41:38;;;;;;;19.73;11.73;;;14.00;99.90;;;;;;4995231;28;20255;-84
2023/05/25 02:44:04;;;;;;;19.77;11.65;;;14.00;99.90;;;;;;4994953;28;20639;-83
2023/05/25 02:46:30;;;;;;;22.27;11.45;;;14.00;99.90;;;;;;4994823;28;20307;-83
2023/05/25 02:48:58;;;;;;;23.35;11.63;;;14.00;99.90;;;;;;5026404;28;20209;-83
2023/05/25 02:51:26;;;;;;;22.92;11.20;;;14.00;99.90;;;;;;4994402;28;20407;-84
2023/05/25 02:53:53;;;;;;;23.02;12.50;;;14.00;99.90;;;;;;4994819;28;20201;-84
2023/05/25 02:56:18;;;;;;;21.13;12.02;;;14.00;99.90;;;;;;4993756;28;20190;-83
2023/05/25 02:58:44;;;;;;;20.90;11.75;;;14.00;99.90;;;;;;4993646;28;20662;-83
2023/05/25 03:01:16;;;;;;;25.27;13.43;;;14.00;99.90;;;;;;5026442;28;20611;-83
2023/05/25 03:03:43;;;;;;;21.27;11.75;;;14.00;99.90;;;;;;5026530;28;20281;-83
2023/05/25 03:06:11;;;;;;;22.77;13.35;;;14.00;99.90;;;;;;4995324;28;20182;-83
2023/05/25 03:08:37;;;;;;;20.33;11.57;;;14.00;99.90;;;;;;4994685;28;20209;-83
2023/05/25 03:11:03;;;;;;;24.50;12.15;;;14.00;99.90;;;;;;4994986;28;20595;-83
2023/05/25 03:13:28;;;;;;;23.77;12.68;;;14.00;99.90;;;;;;5026416;28;20689;-84
2023/05/25 03:15:54;;;;;;;22.80;12.18;;;14.00;99.90;;;;;;5026125;28;20185;-83
2023/05/25 03:18:20;;;;;;;21.50;12.80;;;14.00;99.90;;;;;;4994483;28;20205;-84
2023/05/25 03:20:46;;;;;;;23.77;12.40;;;14.00;99.90;;;;;;5025841;28;20212;-83
2023/05/25 03:23:12;;;;;;;24.02;12.15;;;14.00;99.90;;;;;;4994408;28;20170;-83
2023/05/25 03:25:37;;;;;;;21.13;12.00;;;14.00;99.90;;;;;;5025504;28;20333;-83
2023/05/25 03:28:03;;;;;;;27.05;12.60;;;14.00;99.90;;;;;;4994359;28;20205;-83
2023/05/25 03:30:30;;;;;;;26.30;12.55;;;14.00;99.90;;;;;;4994029;28;20238;-84
2023/05/25 03:32:56;;;;;;;26.05;12.77;;;14.10;99.90;;;;;;4993702;28;20178;-85
2023/05/25 03:35:21;;;;;;;27.20;14.35;;;14.00;99.90;;;;;;5024924;28;20182;-82
2023/05/25 03:37:47;;;;;;;29.42;13.05;;;14.00;99.90;;;;;;4993585;28;20643;-83
2023/05/25 03:40:13;;;;;;;24.83;12.85;;;14.00;99.90;;;;;;5025308;28;20194;-83
2023/05/25 03:42:39;;;;;;;23.45;13.25;;;14.00;99.90;;;;;;5024038;28;20174;-83
2023/05/25 03:45:07;;;;;;;28.05;14.10;;;14.00;99.90;;;;;;4992802;28;20193;-82
2023/05/25 03:47:34;;;;;;;23.42;13.68;;;14.00;99.90;;;;;;5024588;28;20716;-82
2023/05/25 03:49:59;;;;;;;30.30;16.05;;;13.90;99.90;;;;;;4993375;28;20198;-82
2023/05/25 03:52:25;;;;;;;29.70;14.10;;;13.90;99.90;;;;;;4993269;28;20243;-83
2023/05/25 03:54:51;;;;;;;26.98;14.27;;;13.90;99.90;;;;;;5024669;28;20686;-82
2023/05/25 03:57:16;;;;;;;28.25;16.23;;;13.90;99.90;;;;;;5007928;28;20185;-82
2023/05/25 03:59:42;;;;;;;31.20;15.60;;;13.90;99.90;;;;;;5024494;28;20261;-82
2023/05/25 04:02:08;;;;;;;30.90;15.77;;;13.90;99.90;;;;;;5008286;28;20635;-82
2023/05/25 04:04:33;;;;;;;31.05;14.27;;;13.90;99.90;;;;;;5024288;28;20672;-83
2023/05/25 04:06:59;;;;;;;31.08;14.60;;;13.90;99.90;;;;;;4992381;28;20627;-83
2023/05/25 04:09:25;;;;;;;32.70;15.38;;;13.90;99.90;;;;;;5007514;28;20202;-83
2023/05/25 04:11:50;;;;;;;26.20;13.93;;;13.70;99.90;;;;;;5007892;28;20182;-83
2023/05/25 04:14:16;;;;;;;35.20;15.75;;;14.00;99.90;;;;;;4992142;28;20216;-83
2023/05/25 04:16:42;;;;;;;29.10;15.68;;;13.90;99.90;;;;;;4991902;28;20185;-83
2023/05/25 04:19:08;;;;;;;35.75;16.23;;;13.90;99.90;;;;;;4992275;28;20261;-83
2023/05/25 04:21:34;;;;;;;30.90;15.23;;;13.90;99.90;;;;;;4992174;28;20300;-82
2023/05/25 04:24:00;;;;;;;34.25;16.90;;;13.90;99.90;;;;;;5023829;28;20189;-83
2023/05/25 04:26:26;;;;;;;37.13;16.52;;;13.80;99.90;;;;;;4992244;28;20684;-82
2023/05/25 04:28:53;;;;;;;28.80;15.38;;;13.80;99.90;;;;;;4992247;28;20170;-82
2023/05/25 04:31:19;;;;;;;37.90;16.83;;;13.90;99.90;;;;;;4992921;28;20182;-82
2023/05/25 04:33:45;;;;;;;36.10;17.88;;;13.90;99.90;;;;;;4992610;28;20232;-82
2023/05/25 04:36:13;;;;;;;30.20;15.35;;;13.80;99.90;;;;;;5024022;28;20181;-82
2023/05/25 04:38:39;;;;;;;34.50;17.00;;;13.80;99.90;;;;;;5007488;28;20186;-83
2023/05/25 04:41:05;;;;;;;30.10;16.30;;;13.70;99.90;;;;;;4993087;28;20185;-83
2023/05/25 04:43:31;;;;;;;41.15;16.50;;;13.70;99.90;;;;;;5027178;28;20616;-83
2023/05/25 04:45:58;;;;;;;34.55;17.25;;;13.70;99.90;;;;;;5027566;28;20229;-86
2023/05/25 04:48:27;;;;;;;34.42;17.52;;;13.70;99.90;;;;;;5011547;28;20578;-84
2023/05/25 04:50:54;;;;;;;40.08;17.45;;;13.70;99.90;;;;;;4996694;28;20269;-83
2023/05/25 04:53:21;;;;;;;37.67;18.02;;;13.70;99.90;;;;;;5027759;28;20674;-82
2023/05/25 04:55:48;;;;;;;32.30;17.58;;;13.70;99.90;;;;;;4996353;28;20182;-83
2023/05/25 04:58:14;;;;;;;42.08;18.02;;;13.70;99.90;;;;;;5028082;28;20174;-82
2023/05/25 05:00:39;;;;;;;35.17;17.58;;;13.70;99.90;;;;;;5028465;28;20181;-82
2023/05/25 05:03:05;;;;;;;38.13;18.45;;;13.70;99.90;;;;;;5030249;28;20190;-83
2023/05/25 05:05:31;;;;;;;33.53;17.60;;;13.70;99.90;;;;;;5001640;28;20188;-82
2023/05/25 05:07:56;;;;;;;36.67;17.48;;;13.70;99.90;;;;;;5038274;28;20673;-82
2023/05/25 05:10:22;;;;;;;35.78;18.55;;;13.70;99.90;;;;;;5031441;28;20608;-82
2023/05/25 05:12:48;;;;;;;34.35;15.93;;;13.70;99.90;;;;;;4996785;28;20564;-82
2023/05/25 05:15:14;;;;;;;41.00;19.25;;;13.70;99.90;;;;;;5028579;28;20624;-81
2023/05/25 05:17:40;;;;;;;45.35;19.10;;;13.80;99.90;;;;;;4998323;28;20186;-81
2023/05/25 05:20:06;;;;;;;36.58;18.55;;;13.80;99.90;;;;;;5028382;28;20189;-82
2023/05/25 05:22:32;;;;;;;33.67;17.55;;;13.80;99.90;;;;;;4998546;28;20185;-82
2023/05/25 05:24:58;;;;;;;33.10;16.58;;;13.80;99.90;;;;;;4996560;28;20178;-82
2023/05/25 05:27:27;;;;;;;37.55;17.90;;;13.80;99.90;;;;;;5028165;28;20307;-81
2023/05/25 05:29:52;;;;;;;36.85;17.27;;;13.80;99.90;;;;;;4996568;28;20186;-82
2023/05/25 05:32:18;;;;;;;31.92;16.58;;;13.80;99.90;;;;;;5028886;28;20224;-83
2023/05/25 05:34:44;;;;;;;35.00;17.17;;;13.80;99.90;;;;;;5032668;28;20216;-82
2023/05/25 05:37:10;;;;;;;34.53;19.02;;;13.90;99.90;;;;;;5033810;28;20186;-82
2023/05/25 05:39:36;;;;;;;33.80;17.25;;;13.90;99.90;;;;;;4999548;28;20214;-82
2023/05/25 05:42:02;;;;;;;34.72;16.52;;;13.90;99.90;;;;;;5012368;28;20186;-81
2023/05/25 05:44:28;;;;;;;31.65;16.45;;;13.80;99.90;;;;;;5011764;28;20190;-80
2023/05/25 05:46:59;;;;;;;33.08;16.42;;;13.80;99.90;;;;;;4996483;28;20709;-81
2023/05/25 05:49:31;;;;;;;37.80;15.77;;;13.80;99.90;;;;;;4996382;28;20612;-81
2023/05/25 05:51:57;;;;;;;33.42;16.42;;;13.70;99.90;;;;;;4994567;28;20185;-81
2023/05/25 05:54:23;;;;;;;36.50;16.38;;;13.70;99.90;;;;;;4995011;28;20205;-82
2023/05/25 05:56:50;;;;;;;31.52;16.90;;;13.70;99.90;;;;;;4995982;28;20296;-81
2023/05/25 05:59:15;;;;;;;41.22;17.58;;;13.80;99.90;;;;;;5027098;28;20677;-82
2023/05/25 06:01:41;;;;;;;39.35;16.85;;;13.90;99.90;;;;;;4996099;28;20216;-83
2023/05/25 06:04:07;;;;;;;38.28;16.15;;;13.90;99.90;;;;;;5010977;28;20643;-83
2023/05/25 06:06:33;;;;;;;40.67;16.45;;;13.90;99.90;;;;;;4994653;28;20191;-83
2023/05/25 06:09:05;;;;;;;35.30;16.27;;;13.80;99.90;;;;;;4995567;28;20427;-83
2023/05/25 06:11:38;;;;;;;34.38;18.80;;;13.80;99.90;;;;;;5026686;28;20162;-82
2023/05/25 06:14:05;;;;;;;32.85;16.45;;;13.90;99.90;;;;;;5024967;28;20197;-81
2023/05/25 06:16:31;;;;;;;37.17;17.58;;;14.00;99.90;;;;;;4994268;28;20224;-82
2023/05/25 06:18:57;;;;;;;36.53;17.50;;;14.10;99.90;;;;;;4995468;28;20230;-81
2023/05/25 06:21:23;;;;;;;39.05;16.88;;;14.10;99.90;;;;;;5026825;28;20546;-82
2023/05/25 06:23:49;;;;;;;34.85;16.17;;;14.10;99.90;;;;;;5027393;28;20189;-83
2023/05/25 06:26:15;;;;;;;36.25;16.90;;;14.00;99.90;;;;;;5010344;28;20182;-82
2023/05/25 06:28:41;;;;;;;38.85;15.98;;;14.00;99.90;;;;;;4993939;28;20178;-82
2023/05/25 06:31:06;;;;;;;36.65;17.25;;;14.10;99.90;;;;;;5026718;28;20192;-83
2023/05/25 06:33:32;;;;;;;39.53;17.77;;;14.00;99.90;;;;;;5026913;28;20206;-82
2023/05/25 06:35:59;;;;;;;44.33;17.58;;;14.10;99.90;;;;;;5026878;28;20194;-82
2023/05/25 06:38:28;;;;;;;36.92;17.65;;;14.00;99.90;;;;;;4995197;28;20178;-81
2023/05/25 06:40:54;;;;;;;53.47;16.85;;;14.00;99.90;;;;;;4994938;28;20186;-83
2023/05/25 06:43:20;;;;;;;41.60;17.45;;;14.00;99.90;;;;;;4993994;28;20181;-83
2023/05/25 06:45:45;;;;;;;33.10;14.88;;;14.10;99.90;;;;;;4994869;28;20238;-82
2023/05/25 06:48:11;;;;;;;35.88;15.77;;;14.10;99.90;;;;;;5026385;28;20206;-83
2023/05/25 06:50:38;;;;;;;35.78;15.63;;;14.20;99.90;;;;;;5009963;28;20631;-82
2023/05/25 06:53:04;;;;;;;40.38;16.83;;;14.00;99.90;;;;;;4994742;28;20174;-82
2023/05/25 06:55:30;;;;;;;37.38;16.98;;;13.90;99.90;;;;;;4994561;28;20192;-83
2023/05/25 06:57:56;;;;;;;47.50;18.13;;;13.90;99.90;;;;;;5025992;28;20593;-83
2023/05/25 07:00:22;;;;;;;42.17;17.60;;;14.00;99.90;;;;;;5026415;28;20276;-83
2023/05/25 07:02:48;;;;;;;37.08;16.02;;;13.90;99.90;;;;;;5026213;28;20273;-84
2023/05/25 07:05:13;;;;;;;36.72;16.38;;;14.00;99.90;;;;;;5026311;28;20209;-83
2023/05/25 07:07:39;;;;;;;34.78;16.30;;;14.10;99.90;;;;;;4994807;28;20178;-82
2023/05/25 07:10:05;;;;;;;39.78;16.25;;;14.10;99.90;;;;;;5009632;28;20291;-82
2023/05/25 07:12:31;;;;;;;34.67;15.55;;;14.10;99.90;;;;;;4994971;28;20304;-82
2023/05/25 07:14:57;;;;;;;38.38;16.88;;;14.20;99.90;;;;;;4993707;28;20288;-82
2023/05/25 07:17:23;;;;;;;39.55;17.13;;;14.30;99.90;;;;;;4994765;28;20189;-81
2023/05/25 07:19:48;;;;;;;30.25;15.00;;;14.20;99.90;;;;;;5025544;28;20549;-81
2023/05/25 07:22:17;;;;;;;26.88;13.70;;;14.30;99.90;;;;;;5009505;28;20189;-81
2023/05/25 07:24:44;;;;;;;31.15;14.25;;;14.30;99.90;;;;;;4994532;28;20200;-81
2023/05/25 07:27:10;;;;;;;27.50;14.10;;;14.20;99.90;;;;;;4994461;28;20178;-82
2023/05/25 07:29:36;;;;;;;36.28;14.98;;;14.20;99.90;;;;;;4994521;28;20186;-82
2023/05/25 07:32:02;;;;;;;38.58;16.65;;;14.30;99.90;;;;;;4994234;28;20170;-82
2023/05/25 07:34:27;;;;;;;34.67;15.40;;;14.30;99.90;;;;;;5009405;28;20663;-81
2023/05/25 07:36:53;;;;;;;29.90;15.48;;;14.40;99.90;;;;;;5009216;28;20181;-82
2023/05/25 07:39:18;;;;;;;34.75;14.27;;;14.40;99.90;;;;;;4993885;28;20177;-82
2023/05/25 07:41:44;;;;;;;29.90;14.77;;;14.50;99.90;;;;;;5025814;28;20209;-82
2023/05/25 07:44:10;;;;;;;35.70;15.45;;;14.50;99.90;;;;;;5025543;28;20189;-82
2023/05/25 07:46:35;;;;;;;24.88;13.20;;;14.50;99.90;;;;;;4994116;28;20232;-82
2023/05/25 07:49:02;;;;;;;33.03;15.90;;;14.50;99.90;;;;;;4994036;28;20189;-82
2023/05/25 07:51:29;;;;;;;30.15;14.73;;;14.40;99.90;;;;;;4994215;28;20268;-83
2023/05/25 07:53:55;;;;;;;28.45;13.88;;;14.50;99.90;;;;;;5025270;28;20313;-82
2023/05/25 07:56:22;;;;;;;30.85;13.50;;;14.60;99.90;;;;;;5026018;28;20536;-81
2023/05/25 07:58:48;;;;;;;29.15;14.50;;;14.70;99.90;;;;;;5009150;28;20182;-82
2023/05/25 08:01:15;;;;;;;31.25;13.43;;;14.80;99.90;;;;;;4992699;28;20181;-82
2023/05/25 08:03:40;;;;;;;26.90;13.07;;;15.00;99.90;;;;;;4997348;28;20178;-81
2023/05/25 08:06:06;;;;;;;29.45;13.05;;;15.00;99.90;;;;;;5017321;28;20226;-82
2023/05/25 08:08:33;;;;;;;30.08;13.43;;;15.20;99.90;;;;;;5027528;28;20631;-82
2023/05/25 08:11:00;;;;;;;30.80;14.80;;;15.20;99.90;;;;;;5025232;28;20178;-82
2023/05/25 08:13:25;;;;;;;27.92;13.50;;;15.20;99.90;;;;;;5008720;28;20237;-82
2023/05/25 08:15:51;;;;;;;28.92;13.30;;;15.20;99.90;;;;;;5025477;28;20190;-82
2023/05/25 08:18:18;;;;;;;26.33;12.90;;;15.20;99.90;;;;;;5027620;28;20217;-83
2023/05/25 08:20:43;;;;;;;29.35;13.10;;;15.30;99.90;;;;;;4997810;28;20178;-81
2023/05/25 08:23:09;;;;;;;31.10;13.93;;;15.40;99.90;;;;;;5029079;28;20189;-82
2023/05/25 08:25:35;;;;;;;33.92;14.57;;;15.40;99.90;;;;;;5012684;28;20188;-80
2023/05/25 08:28:00;;;;;;;25.00;13.52;;;15.50;99.90;;;;;;5029339;28;20185;-81
2023/05/25 08:30:26;;;;;;;28.58;13.05;;;15.60;99.90;;;;;;5012483;28;20535;-80
2023/05/25 08:32:52;;;;;;;28.35;12.32;;;15.50;99.90;;;;;;4997481;28;20322;-82
2023/05/25 08:35:18;;;;;;;30.20;14.75;;;15.60;99.90;;;;;;4997209;28;20209;-82
2023/05/25 08:37:44;;;;;;;28.90;13.52;;;15.80;99.90;;;;;;4997491;28;20178;-82
2023/05/25 08:40:15;;;;;;;28.02;14.23;;;15.90;99.90;;;;;;4997274;28;20228;-82
2023/05/25 08:42:42;;;;;;;26.73;13.85;;;16.00;99.90;;;;;;4997475;28;20224;-82
2023/05/25 08:45:08;;;;;;;26.70;12.80;;;16.00;99.90;;;;;;4997003;28;20182;-83
2023/05/25 08:47:43;;;;;;;22.17;12.32;;;16.20;99.90;;;;;;4997320;28;20170;-83
2023/05/25 08:50:11;;;;;;;25.42;14.05;;;16.50;99.90;;;;;;4995843;28;20177;-83
2023/05/25 08:52:43;;;;;;;24.42;12.90;;;16.60;99.90;;;;;;4997089;28;20259;-83
2023/05/25 08:55:09;;;;;;;25.45;12.90;;;16.70;99.90;;;;;;4997374;28;20725;-82
2023/05/25 08:58:16;;;;;;;24.35;12.90;;;17.00;99.90;;;;;;5028926;28;20189;-82
2023/05/25 09:00:53;;;;;;;25.05;13.13;;;17.30;99.90;;;;;;4994723;28;20202;-82
2023/05/25 09:03:19;;;;;;;22.88;11.95;;;17.50;99.90;;;;;;4996825;28;20169;-83
2023/05/25 09:05:46;;;;;;;21.33;11.98;;;17.60;99.90;;;;;;5028424;28;20182;-83
2023/05/25 09:08:12;;;;;;;21.73;11.68;;;17.70;99.90;;;;;;4995356;28;20178;-83
2023/05/25 09:10:38;;;;;;;21.10;11.63;;;17.70;99.90;;;;;;4996895;28;20178;-83
2023/05/25 09:13:04;;;;;;;26.38;13.20;;;17.70;99.90;;;;;;4995280;28;20244;-83
2023/05/25 09:15:31;;;;;;;20.20;11.18;;;17.70;99.90;;;;;;4996406;28;20567;-83
2023/05/25 09:17:56;;;;;;;26.23;12.27;;;17.80;99.90;;;;;;4996476;28;20178;-82
2023/05/25 09:20:23;;;;;;;21.15;11.57;;;17.80;99.90;;;;;;5011294;28;20707;-83
2023/05/25 09:22:49;;;;;;;27.10;13.20;;;18.10;99.90;;;;;;5028255;28;20196;-81
2023/05/25 09:25:21;;;;;;;23.90;12.25;;;18.20;99.90;;;;;;4996443;28;20204;-83
2023/05/25 09:27:48;;;;;;;23.42;11.88;;;18.20;99.90;;;;;;4996465;28;20178;-82
2023/05/25 09:30:14;;;;;;;23.83;12.95;;;18.20;99.90;;;;;;5026955;28;20190;-82
2023/05/25 09:32:40;;;;;;;25.02;13.27;;;18.40;99.90;;;;;;4995199;28;20178;-82
2023/05/25 09:35:08;;;;;;;23.85;12.85;;;18.50;99.90;;;;;;5011088;28;20214;-83
2023/05/25 09:37:36;;;;;;;27.15;12.93;;;18.70;99.90;;;;;;4998711;28;20174;-83
2023/05/25 09:40:05;;;;;;;24.65;11.75;;;18.70;99.90;;;;;;5027653;28;20182;-82
2023/05/25 09:42:32;;;;;;;25.60;11.38;;;18.90;99.90;;;;;;4994880;28;20631;-83
2023/05/25 09:44:58;;;;;;;21.42;11.82;;;18.80;99.90;;;;;;5027721;28;20182;-82
2023/05/25 09:47:25;;;;;;;21.95;11.63;;;18.90;99.90;;;;;;4996084;28;20190;-82
2023/05/25 09:49:51;;;;;;;19.25;11.25;;;19.00;99.90;;;;;;4996122;28;20624;-82
2023/05/25 09:52:17;;;;;;;22.83;12.02;;;19.20;99.90;;;;;;4996160;28;20209;-82
2023/05/25 09:54:50;;;;;;;22.70;12.75;;;19.20;99.90;;;;;;5027653;28;20206;-82
2023/05/25 09:57:17;;;;;;;21.80;13.05;;;19.10;99.90;;;;;;4995899;28;20257;-82
2023/05/25 09:59:44;;;;;;;26.60;12.82;;;19.30;99.90;;;;;;4996004;28;20182;-82
2023/05/25 10:02:10;;;;;;;20.88;11.65;;;19.20;99.90;;;;;;5010653;28;20209;-83
2023/05/25 10:04:36;;;;;;;18.85;11.38;;;19.40;99.90;;;;;;4996127;28;20213;-83
2023/05/25 10:07:03;;;;;;;20.25;11.40;;;19.80;99.90;;;;;;4994633;28;20290;-84
2023/05/25 10:09:29;;;;;;;19.92;10.77;;;19.90;99.90;;;;;;4995610;28;20808;-82
2023/05/25 10:12:00;;;;;;;23.17;12.13;;;20.00;99.90;;;;;;5011738;28;20208;-82
2023/05/25 10:14:28;;;;;;;21.05;12.48;;;19.90;99.90;;;;;;4994523;28;20216;-82
2023/05/25 10:16:56;;;;;;;19.52;11.93;;;19.90;99.90;;;;;;5011179;28;20190;-83
2023/05/25 10:19:35;;;;;;;19.17;11.48;;;19.60;99.90;;;;;;4995545;28;20181;-83
2023/05/25 10:22:12;;;;;;;20.27;11.18;;;19.90;99.90;;;;;;5028336;28;20178;-83
2023/05/25 10:24:56;;;;;;;20.35;12.18;;;19.90;99.90;;;;;;4996637;28;20161;-83
2023/05/25 10:27:48;;;;;;;18.02;11.07;;;19.90;99.90;;;;;;4996987;28;20165;-83
2023/05/25 10:30:15;;;;;;;24.40;11.38;;;19.70;99.90;;;;;;4993703;28;20216;-82
2023/05/25 10:32:43;;;;;;;23.27;12.35;;;19.80;99.90;;;;;;4995269;28;20585;-85
2023/05/25 10:35:10;;;;;;;23.33;12.80;;;19.50;99.90;;;;;;4997204;28;20677;-82
2023/05/25 10:37:37;;;;;;;22.60;12.75;;;19.50;99.90;;;;;;5026963;28;20186;-82
2023/05/25 10:40:07;;;;;;;19.95;12.60;;;19.30;99.90;;;;;;4995927;28;20174;-82
2023/05/25 10:42:35;;;;;;;30.92;13.10;;;19.30;99.90;;;;;;4995835;28;20182;-83
2023/05/25 10:45:06;;;;;;;22.02;11.95;;;19.50;99.90;;;;;;5026612;28;20174;-82
2023/05/25 10:47:33;;;;;;;23.02;12.23;;;19.60;99.90;;;;;;5010587;28;20181;-83
2023/05/25 10:50:02;;;;;;;18.92;11.32;;;19.90;99.90;;;;;;4995607;28;20185;-83
2023/05/25 10:52:31;;;;;;;20.00;11.65;;;20.10;99.90;;;;;;4995949;28;20174;-82
2023/05/25 10:55:04;;;;;;;24.30;12.63;;;20.50;99.90;;;;;;4995365;28;20205;-82
2023/05/25 10:57:29;;;;;;;20.20;11.10;;;20.50;99.90;;;;;;4993504;28;20205;-84
2023/05/25 11:00:05;;;;;;;28.42;12.05;;;20.40;99.90;;;;;;4996492;28;20220;-83
2023/05/25 11:02:46;;;;;;;22.33;11.68;;;20.50;99.90;;;;;;4995411;28;20212;-83
2023/05/25 11:05:30;;;;;;;23.60;11.80;;;20.30;99.90;;;;;;4996273;28;20177;-84
2023/05/25 11:07:57;;;;;;;22.20;12.18;;;20.10;99.90;;;;;;5029755;28;20173;-82
2023/05/25 11:10:53;;;;;;;18.15;11.25;;;20.00;99.90;;;;;;5026143;28;20213;-82
2023/05/25 11:13:30;;;;;;;19.90;11.40;;;20.20;99.90;;;;;;4985877;28;20193;-83
2023/05/25 11:16:18;;;;;;;20.27;11.25;;;20.40;99.90;;;;;;4994582;28;20231;-83
2023/05/25 11:18:50;;;;;;;21.85;11.82;;;20.60;99.90;;;;;;4995835;28;20216;-83
2023/05/25 11:21:20;;;;;;;22.90;12.07;;;20.80;99.90;;;;;;4994379;28;20531;-83
2023/05/25 11:23:56;;;;;;;17.30;10.20;;;20.90;99.90;;;;;;5026265;28;20182;-83
2023/05/25 11:26:25;;;;;;;22.38;10.80;;;21.10;99.90;;;;;;5026424;28;20182;-83
2023/05/25 11:28:51;;;;;;;19.40;12.15;;;21.00;99.90;;;;;;4994726;28;20185;-82
2023/05/25 11:31:35;;;;;;;18.52;10.60;;;20.90;99.90;;;;;;5026768;28;20192;-82
2023/05/25 11:34:03;;;;;;;19.48;10.80;;;20.70;99.90;;;;;;4994447;28;20209;-83
2023/05/25 11:36:32;;;;;;;19.13;10.93;;;20.80;99.90;;;;;;4997499;28;20196;-82
2023/05/25 11:39:00;;;;;;;19.55;10.48;;;20.50;99.90;;;;;;5009334;28;20185;-83
2023/05/25 11:41:26;;;;;;;18.80;11.35;;;20.60;99.90;;;;;;5002028;28;20236;-86
2023/05/25 11:43:52;;;;;;;18.55;10.95;;;20.60;99.90;;;;;;4997995;28;20212;-83
2023/05/25 11:46:20;;;;;;;20.40;11.13;;;20.40;99.90;;;;;;5030279;28;20722;-86
2023/05/25 11:48:53;;;;;;;16.15;9.57;;;20.40;99.90;;;;;;5027635;28;20295;-81
2023/05/25 11:51:24;;;;;;;24.38;11.82;;;20.50;99.90;;;;;;5011802;28;20185;-81
2023/05/25 11:53:50;;;;;;;17.88;10.52;;;20.50;99.90;;;;;;4995383;28;20197;-81
2023/05/25 11:56:18;;;;;;;19.48;11.43;;;20.50;99.90;;;;;;5027894;28;20288;-82
2023/05/25 11:58:46;;;;;;;16.05;10.18;;;20.50;99.90;;;;;;5026975;28;20178;-82
2023/05/25 12:01:18;;;;;;;18.73;10.90;;;20.80;99.90;;;;;;4995927;28;20174;-82
2023/05/25 12:03:46;;;;;;;16.50;9.82;;;21.10;99.90;;;;;;4996002;28;20538;-82
2023/05/25 12:06:32;;;;;;;15.38;10.63;;;21.50;99.90;;;;;;4993724;28;20522;-82
2023/05/25 12:09:00;;;;;;;19.42;10.32;;;21.70;99.90;;;;;;4993369;28;20174;-83
2023/05/25 12:11:32;;;;;;;16.27;10.15;;;21.70;99.90;;;;;;4994228;28;20244;-83
2023/05/25 12:13:59;;;;;;;16.33;9.25;;;21.70;99.90;;;;;;4993196;28;20256;-82
2023/05/25 12:16:26;;;;;;;19.23;11.00;;;21.60;99.90;;;;;;4993510;28;20589;-83
2023/05/25 12:18:52;;;;;;;17.33;9.98;;;21.70;99.90;;;;;;4993562;28;20535;-83
2023/05/25 12:21:20;;;;;;;16.80;10.40;;;22.00;99.90;;;;;;5024891;28;20181;-83
2023/05/25 12:23:46;;;;;;;15.13;10.05;;;22.10;99.90;;;;;;4994063;28;20184;-84
2023/05/25 12:26:13;;;;;;;17.42;9.63;;;22.10;99.90;;;;;;4994029;28;20228;-80
2023/05/25 12:28:40;;;;;;;20.08;10.80;;;22.10;99.90;;;;;;5025262;28;20212;-79
2023/05/25 12:31:26;;;;;;;15.40;9.77;;;22.10;99.90;;;;;;5008927;28;20249;-83